Time;durP1;ratioP1;P1;durP2;ratioP2;P2;SDS_P1;SDS_P2;PMS_P1;PMS_P2;Temp;Humidity;BMP_temperature;BMP_pressure;BME280_temperature;BME280_humidity;BME280_pressure;Samples;Min_cycle;Max_cycle;Signal;HPM_P1;HPM_P2
2022/01/16 00:04:16;;;;;;;;;26.25;22.00;;;;;5.07;59.50;102204.53;5056125;28;45309;-63
2022/01/16 00:06:43;;;;;;;;;32.75;27.25;;;;;5.02;58.42;102202.53;5056393;28;45406;-61
2022/01/16 00:09:09;;;;;;;;;36.50;27.25;;;;;4.93;58.95;102176.13;5056259;28;46155;-61
2022/01/16 00:11:35;;;;;;;;;28.50;26.50;;;;;5.03;58.73;102189.63;5057147;28;45346;-64
2022/01/16 00:14:02;;;;;;;;;38.50;24.25;;;;;4.97;58.86;102184.13;5057871;28;45468;-61
2022/01/16 00:16:28;;;;;;;;;22.50;18.75;;;;;4.93;58.85;102205.56;5056547;28;45306;-61
2022/01/16 00:18:54;;;;;;;;;31.75;23.75;;;;;4.86;59.04;102194.03;5055714;28;45512;-61
2022/01/16 00:21:25;;;;;;;;;39.50;31.00;;;;;4.86;59.38;102178.44;5055280;28;46211;-61
2022/01/16 00:23:51;;;;;;;;;34.75;26.50;;;;;4.92;59.15;102196.00;5056894;28;45585;-62
2022/01/16 00:26:18;;;;;;;;;31.00;25.25;;;;;4.91;59.21;102207.19;5042331;28;45524;-61
2022/01/16 00:28:43;;;;;;;;;35.50;26.50;;;;;4.87;59.46;102213.06;5058135;28;45661;-62
2022/01/16 00:31:12;;;;;;;;;33.00;26.00;;;;;4.75;59.11;102217.66;5055376;28;45418;-61
2022/01/16 00:33:39;;;;;;;;;31.75;28.75;;;;;4.87;59.03;102257.22;5055716;28;45877;-63
2022/01/16 00:36:10;;;;;;;;;32.25;26.75;;;;;4.85;58.65;102251.03;5055465;28;45566;-61
2022/01/16 00:38:39;;;;;;;;;39.50;28.25;;;;;4.80;58.71;102244.75;5056873;28;45548;-62
2022/01/16 00:41:05;;;;;;;;;31.00;26.00;;;;;4.79;59.08;102214.38;5060240;28;45498;-62
2022/01/16 00:43:30;;;;;;;;;38.00;26.50;;;;;4.80;58.88;102211.00;5060076;28;45412;-62
2022/01/16 00:45:57;;;;;;;;;39.50;31.25;;;;;4.66;58.97;102200.81;5057907;28;45335;-62
2022/01/16 00:48:22;;;;;;;;;34.00;28.50;;;;;4.75;58.38;102215.97;5054303;28;45508;-60
2022/01/16 00:50:48;;;;;;;;;33.25;25.25;;;;;4.74;59.16;102226.25;5055514;28;46135;-60
2022/01/16 00:53:14;;;;;;;;;31.75;26.50;;;;;4.72;58.71;102228.75;5055139;28;45961;-61
2022/01/16 00:55:41;;;;;;;;;29.25;26.00;;;;;4.71;59.11;102241.69;5055080;28;45396;-61
2022/01/16 00:58:07;;;;;;;;;38.50;27.75;;;;;4.65;58.18;102237.06;5055705;28;45423;-60
2022/01/16 01:00:33;;;;;;;;;39.50;31.25;;;;;4.61;58.20;102236.03;5041036;28;45604;-60
2022/01/16 01:03:00;;;;;;;;;28.50;24.50;;;;;4.63;58.53;102294.09;5053440;28;45552;-60
2022/01/16 01:05:26;;;;;;;;;30.25;24.25;;;;;4.63;58.51;102275.03;5044467;28;45520;-61
2022/01/16 01:07:56;;;;;;;;;36.50;26.75;;;;;4.55;58.90;102276.34;5042834;28;45418;-64
2022/01/16 01:10:30;;;;;;;;;40.00;32.00;;;;;4.61;58.41;102269.78;5025808;28;46389;-61
2022/01/16 01:13:07;;;;;;;;;27.50;17.25;;;;;4.59;58.59;102302.53;5034322;28;45273;-60
2022/01/16 01:15:50;;;;;;;;;26.50;20.25;;;;;4.43;58.73;102256.72;5036297;28;46163;-61
2022/01/16 01:18:19;;;;;;;;;28.25;21.75;;;;;4.57;58.59;102296.38;5048336;28;45497;-64
2022/01/16 01:20:48;;;;;;;;;29.75;23.75;;;;;4.11;58.95;102195.44;5018387;28;45525;-65
2022/01/16 01:23:15;;;;;;;;;26.75;25.25;;;;;4.56;59.22;102224.53;5041306;28;45424;-61
2022/01/16 01:25:44;;;;;;;;;30.50;27.00;;;;;4.55;58.55;102195.91;5038492;28;45566;-64
2022/01/16 01:28:11;;;;;;;;;29.00;25.50;;;;;4.53;59.48;102195.84;5035581;28;45742;-66
2022/01/16 01:30:44;;;;;;;;;31.25;22.50;;;;;4.16;58.88;102113.56;5038797;28;45709;-62
2022/01/16 01:33:15;;;;;;;;;27.50;22.50;;;;;4.52;59.02;102177.59;5055713;28;45481;-62
2022/01/16 01:35:42;;;;;;;;;31.00;27.25;;;;;4.53;58.62;102190.66;5053940;28;45801;-62
2022/01/16 01:38:10;;;;;;;;;29.75;25.00;;;;;4.54;58.57;102225.28;5055383;28;45430;-61
2022/01/16 01:40:39;;;;;;;;;27.00;23.00;;;;;3.95;59.46;102143.59;5057300;28;46206;-64
2022/01/16 01:51:44;;;;;;;;;34.00;29.00;;;;;4.38;58.45;102253.00;5033078;28;45671;-65
2022/01/16 01:54:10;;;;;;;;;28.50;25.75;;;;;4.48;59.24;102295.88;5054593;28;45614;-65
2022/01/16 01:56:37;;;;;;;;;28.50;27.00;;;;;4.46;58.93;102277.66;5054991;28;45484;-65
2022/01/16 01:59:04;;;;;;;;;30.25;23.75;;;;;4.21;58.93;102241.78;5053597;28;45853;-61
2022/01/16 02:01:35;;;;;;;;;32.50;24.00;;;;;4.45;59.44;102290.53;5053652;28;45393;-67
2022/01/16 02:04:04;;;;;;;;;32.75;26.75;;;;;4.07;59.27;102249.66;5053786;28;45501;-67
2022/01/16 02:06:32;;;;;;;;;28.25;27.25;;;;;4.44;58.54;102301.75;5054364;28;46383;-66
2022/01/16 02:09:03;;;;;;;;;35.00;27.75;;;;;4.42;59.22;102329.31;5055059;28;45449;-66
2022/01/16 02:11:31;;;;;;;;;35.00;25.25;;;;;4.13;59.12;102302.72;5058357;28;45619;-65
2022/01/16 02:30:50;;;;;;;;;46.00;36.50;;;;;3.96;59.49;102268.13;5053558;28;45550;-62
2022/01/16 02:35:35;;;;;;;;;39.50;33.50;;;;;4.32;59.23;102334.81;5052898;28;45410;-61
2022/01/16 02:38:00;;;;;;;;;41.50;31.00;;;;;4.20;59.58;102315.22;5053500;28;45506;-63
2022/01/16 02:40:30;;;;;;;;;42.25;28.50;;;;;3.98;59.01;102269.06;5055788;28;45502;-61
2022/01/16 02:42:55;;;;;;;;;39.25;29.00;;;;;4.28;59.20;102312.13;5057363;28;45517;-62
2022/01/16 02:45:34;;;;;;;;;34.25;30.00;;;;;4.14;59.68;102281.16;5057653;28;45459;-63
2022/01/16 02:48:06;;;;;;;;;34.50;31.75;;;;;3.80;59.23;102213.69;5057066;28;45441;-61
2022/01/16 02:50:36;;;;;;;;;44.25;32.00;;;;;4.22;59.77;102295.44;5057256;28;45433;-62
2022/01/16 02:53:10;;;;;;;;;37.75;32.75;;;;;4.23;59.29;102289.44;5053156;28;45536;-62
2022/01/16 02:55:40;;;;;;;;;32.75;24.50;;;;;4.26;59.26;102301.66;5052046;28;47378;-64
2022/01/16 02:58:06;;;;;;;;;42.75;25.00;;;;;4.28;59.52;102301.75;5054302;28;45440;-62
2022/01/16 03:00:32;;;;;;;;;49.25;36.00;;;;;4.28;59.07;102291.38;5055503;28;45394;-63
2022/01/16 03:03:01;;;;;;;;;46.25;35.75;;;;;4.29;58.92;102298.34;5053449;28;46306;-61
2022/01/16 03:05:27;;;;;;;;;53.00;40.00;;;;;4.16;59.36;102274.34;5041036;28;45623;-63
2022/01/16 03:07:53;;;;;;;;;45.75;34.50;;;;;4.14;59.56;102275.97;5057717;28;45799;-62
2022/01/16 03:10:41;;;;;;;;;35.25;28.50;;;;;4.07;59.10;102273.88;5057301;28;45406;-64
2022/01/16 03:13:07;;;;;;;;;39.50;31.50;;;;;3.90;59.33;102243.56;5055152;28;46032;-61
2022/01/16 03:15:35;;;;;;;;;56.50;38.00;;;;;3.81;59.43;102229.28;5052429;28;45560;-61
2022/01/16 03:23:15;;;;;;;;;55.50;40.25;;;;;3.81;59.07;102254.34;5059844;28;45690;-61
2022/01/16 03:25:42;;;;;;;;;47.50;38.25;;;;;3.76;59.35;102264.44;5057957;28;45518;-60
2022/01/16 03:28:08;;;;;;;;;54.50;36.25;;;;;3.70;60.07;102264.13;5056900;28;45567;-61
2022/01/16 03:30:33;;;;;;;;;50.75;35.00;;;;;3.67;60.21;102269.13;5056542;28;45491;-63
2022/01/16 03:32:59;;;;;;;;;51.50;36.00;;;;;3.61;60.01;102266.22;5055984;28;45467;-61
2022/01/16 03:35:28;;;;;;;;;39.75;33.50;;;;;3.63;60.07;102269.78;5056688;28;46926;-61
2022/01/16 03:37:54;;;;;;;;;47.50;35.25;;;;;3.63;60.56;102277.56;5060449;28;45591;-61
2022/01/16 03:40:22;;;;;;;;;49.50;36.25;;;;;3.60;60.11;102279.97;5056150;28;45394;-60
2022/01/16 03:42:48;;;;;;;;;50.00;35.75;;;;;3.63;60.22;102287.00;5062849;27;46663;-61
2022/01/16 03:45:15;;;;;;;;;51.75;38.25;;;;;3.59;59.89;102298.91;5056005;28;45404;-61
2022/01/16 03:47:41;;;;;;;;;50.50;35.75;;;;;3.51;59.93;102297.59;5055571;28;45912;-59
2022/01/16 03:50:09;;;;;;;;;49.50;38.25;;;;;3.35;60.68;102259.59;5055870;28;45445;-62
2022/01/16 03:52:35;;;;;;;;;55.00;42.00;;;;;3.17;60.31;102236.13;5055251;28;46443;-61
2022/01/16 03:55:03;;;;;;;;;57.00;46.00;;;;;3.38;61.03;102285.66;5055171;28;45836;-63
2022/01/16 03:57:29;;;;;;;;;61.67;46.00;;;;;2.94;60.24;102225.41;5057350;28;45671;-62
2022/01/16 03:59:55;;;;;;;;;58.00;43.00;;;;;3.24;61.16;102277.09;5056257;28;45353;-61
2022/01/16 04:02:21;;;;;;;;;59.00;43.00;;;;;3.21;60.62;102297.66;5059837;28;45498;-61
2022/01/16 04:04:47;;;;;;;;;63.33;46.33;;;;;2.80;60.88;102227.97;5058879;28;45535;-61
2022/01/16 04:07:18;;;;;;;;;53.67;42.33;;;;;3.02;60.79;102292.25;5055641;28;45467;-60
2022/01/16 04:09:44;;;;;;;;;50.00;38.50;;;;;2.90;61.84;102280.38;5055707;28;45570;-60
2022/01/16 04:12:10;;;;;;;;;62.00;42.50;;;;;2.97;61.54;102299.75;5055223;28;45391;-61
2022/01/16 04:17:12;;;;;;;;;56.00;40.00;;;;;2.83;61.28;102285.09;5059598;28;45778;-62
2022/01/16 04:19:38;;;;;;;;;54.25;42.50;;;;;2.86;61.50;102301.69;5059306;28;45721;-59
2022/01/16 04:22:04;;;;;;;;;54.00;39.25;;;;;2.68;61.56;102272.13;5059384;28;45888;-61
2022/01/16 04:24:30;;;;;;;;;52.75;40.25;;;;;2.93;61.93;102328.81;5053198;28;45914;-61
2022/01/16 04:26:56;;;;;;;;;55.67;39.67;;;;;2.91;61.35;102331.31;5056100;28;45969;-61
2022/01/16 04:29:21;;;;;;;;;47.75;37.50;;;;;2.84;62.10;102328.28;5055450;28;45734;-61
2022/01/16 04:31:47;;;;;;;;;40.50;32.50;;;;;2.63;61.69;102286.50;5055357;28;45643;-60
2022/01/16 04:34:13;;;;;;;;;45.50;35.50;;;;;2.82;61.65;102324.72;5056668;28;45958;-61
2022/01/16 04:36:42;;;;;;;;;41.00;34.00;;;;;2.83;61.27;102335.16;5059592;28;45477;-60
2022/01/16 04:39:14;;;;;;;;;43.50;37.00;;;;;2.95;61.88;102354.00;5057105;28;45917;-61
2022/01/16 04:44:30;;;;;;;;;41.25;31.75;;;;;3.05;62.14;102362.31;5055355;28;45297;-61
2022/01/16 04:47:01;;;;;;;;;37.25;29.50;;;;;3.08;61.67;102358.19;5053741;28;46036;-61
2022/01/16 04:49:30;;;;;;;;;36.50;29.00;;;;;3.08;62.15;102346.94;5058058;28;45592;-60
2022/01/16 04:51:55;;;;;;;;;35.50;27.25;;;;;2.94;61.39;102318.56;5055867;28;45477;-62
2022/01/16 04:54:22;;;;;;;;;39.00;32.75;;;;;2.85;61.96;102299.91;5054982;28;45443;-60
2022/01/16 04:56:51;;;;;;;;;37.50;31.50;;;;;3.16;62.08;102338.81;5058244;28;45402;-61
2022/01/16 04:59:17;;;;;;;;;46.00;34.00;;;;;3.23;61.50;102341.75;5055091;28;45345;-61
2022/01/16 05:01:44;;;;;;;;;44.50;29.00;;;;;3.17;62.12;102340.59;5056471;28;45580;-63
2022/01/16 05:04:10;;;;;;;;;40.25;31.75;;;;;3.03;62.08;102328.53;5059165;28;45523;-62
2022/01/16 05:06:37;;;;;;;;;42.25;33.50;;;;;3.24;62.09;102359.97;5054862;28;45414;-60
2022/01/16 05:09:03;;;;;;;;;46.00;32.00;;;;;3.29;61.79;102363.72;5053965;28;45426;-61
2022/01/16 05:11:30;;;;;;;;;40.25;32.75;;;;;3.30;61.87;102369.78;5046552;28;47774;-61
2022/01/16 05:19:20;;;;;;;;;42.25;31.00;;;;;3.34;62.03;102371.75;5022373;28;45494;-60
2022/01/16 05:21:47;;;;;;;;;51.50;35.00;;;;;3.09;62.22;102333.22;5021306;28;47389;-63
2022/01/16 05:24:13;;;;;;;;;42.00;30.75;;;;;3.30;61.49;102368.09;5040743;28;45684;-60
2022/01/16 05:26:42;;;;;;;;;41.00;28.75;;;;;3.28;61.92;102369.72;5057249;28;45406;-62
2022/01/16 05:29:10;;;;;;;;;35.25;28.75;;;;;3.20;61.64;102352.81;5059925;28;45501;-61
2022/01/16 05:31:36;;;;;;;;;39.25;31.75;;;;;3.29;61.62;102371.47;5051975;28;45862;-65
2022/01/16 05:34:03;;;;;;;;;39.00;30.25;;;;;3.43;61.74;102399.88;5035187;28;46068;-61
2022/01/16 05:36:29;;;;;;;;;42.75;29.25;;;;;3.41;61.74;102410.16;5036830;28;45857;-61
2022/01/16 05:38:58;;;;;;;;;36.50;32.25;;;;;3.39;62.26;102401.41;5054078;28;45545;-60
2022/01/16 05:41:24;;;;;;;;;38.00;29.00;;;;;3.24;61.73;102377.22;5037533;28;45986;-61
2022/01/16 05:43:52;;;;;;;;;34.75;18.75;;;;;3.45;61.78;102421.59;5046057;28;45457;-61
2022/01/16 05:46:17;;;;;;;;;39.00;32.00;;;;;3.46;62.26;102407.81;5054064;28;45962;-61
2022/01/16 05:48:43;;;;;;;;;37.25;26.75;;;;;3.35;62.20;102395.16;5054607;28;45477;-63
2022/01/16 05:51:09;;;;;;;;;41.75;32.75;;;;;3.33;62.34;102370.88;5038441;28;46171;-61
2022/01/16 05:53:37;;;;;;;;;45.75;31.75;;;;;3.41;62.41;102379.06;5038752;28;45332;-66
2022/01/16 05:56:02;;;;;;;;;33.00;27.25;;;;;3.45;62.62;102398.28;5038738;28;45524;-65
2022/01/16 05:58:28;;;;;;;;;39.00;25.25;;;;;3.34;61.76;102395.06;5035031;28;45447;-66
2022/01/16 06:00:54;;;;;;;;;36.00;26.00;;;;;3.42;61.60;102411.03;5033405;28;45495;-66
2022/01/16 06:03:21;;;;;;;;;33.75;26.50;;;;;3.17;61.93;102363.00;5038324;28;45385;-64
2022/01/16 06:05:47;;;;;;;;;39.00;28.25;;;;;3.34;62.39;102390.75;5036787;28;45467;-66
2022/01/16 06:08:14;;;;;;;;;33.50;26.00;;;;;3.07;62.25;102358.13;5042064;28;45877;-67
2022/01/16 06:10:40;;;;;;;;;39.25;23.00;;;;;3.34;62.84;102403.72;5055709;28;46422;-66
2022/01/16 06:13:05;;;;;;;;;42.25;29.50;;;;;3.34;62.00;102401.13;5057951;28;45284;-65
2022/01/16 06:15:32;;;;;;;;;39.00;29.75;;;;;3.42;62.86;102414.53;5054141;28;45516;-66
2022/01/16 06:17:58;;;;;;;;;45.50;31.75;;;;;3.34;62.38;102415.78;5054257;28;45678;-67
2022/01/16 06:20:23;;;;;;;;;49.75;35.50;;;;;3.38;62.35;102436.78;5056472;28;46007;-65
2022/01/16 06:22:49;;;;;;;;;42.50;31.75;;;;;3.34;62.68;102442.56;5053838;28;45283;-65
2022/01/16 06:25:15;;;;;;;;;36.50;28.75;;;;;3.08;62.42;102402.19;5056648;28;45537;-67
2022/01/16 06:27:41;;;;;;;;;39.75;29.50;;;;;3.15;62.65;102406.03;5038087;28;45857;-65
2022/01/16 06:30:09;;;;;;;;;27.75;23.50;;;;;3.23;62.86;102429.78;5053595;28;45530;-66
2022/01/16 06:32:36;;;;;;;;;42.75;28.50;;;;;3.32;63.23;102448.47;5039960;28;45576;-66
2022/01/16 06:35:02;;;;;;;;;30.75;23.25;;;;;3.22;62.98;102433.19;5056352;28;45779;-64
2022/01/16 06:37:28;;;;;;;;;35.00;26.75;;;;;3.33;63.08;102453.75;5053966;28;45531;-61
2022/01/16 06:39:53;;;;;;;;;29.25;22.50;;;;;3.33;63.36;102448.56;5053267;28;45559;-60
2022/01/16 06:42:19;;;;;;;;;29.25;20.75;;;;;3.34;62.91;102436.50;5044676;28;45454;-60
2022/01/16 06:44:45;;;;;;;;;21.25;17.00;;;;;3.11;63.58;102411.88;5033302;28;45458;-62
2022/01/16 06:47:11;;;;;;;;;24.50;15.50;;;;;3.13;63.12;102403.38;5055948;28;45741;-62
2022/01/16 06:49:37;;;;;;;;;27.50;16.25;;;;;3.37;63.25;102454.84;5053704;28;45370;-62
2022/01/16 06:52:03;;;;;;;;;25.25;15.50;;;;;3.39;63.20;102463.56;5053443;28;45655;-62
2022/01/16 06:54:28;;;;;;;;;17.25;10.75;;;;;3.39;62.85;102453.19;5055812;28;45569;-62
2022/01/16 06:56:54;;;;;;;;;28.50;24.75;;;;;3.35;63.57;102457.31;5057466;28;45382;-60
2022/01/16 06:59:20;;;;;;;;;24.00;20.75;;;;;3.33;62.78;102458.03;5056184;28;46521;-60
2022/01/16 07:01:46;;;;;;;;;26.75;22.75;;;;;3.33;63.68;102469.28;5056028;28;45659;-61
2022/01/16 07:04:11;;;;;;;;;21.50;17.50;;;;;3.35;63.23;102482.34;5046810;28;45994;-60
2022/01/16 07:06:38;;;;;;;;;25.25;16.75;;;;;3.34;63.18;102471.06;5043447;28;45568;-61
2022/01/16 07:09:04;;;;;;;;;27.25;17.50;;;;;3.35;63.63;102484.94;5055370;28;45803;-62
2022/01/16 07:11:29;;;;;;;;;19.00;12.25;;;;;3.15;63.78;102461.31;5060050;28;45727;-61
2022/01/16 07:13:58;;;;;;;;;17.00;14.75;;;;;3.34;63.64;102496.06;5056252;28;45559;-61
2022/01/16 07:16:24;;;;;;;;;17.50;14.25;;;;;2.96;63.09;102446.34;5057660;28;45655;-60
2022/01/16 07:18:49;;;;;;;;;14.75;11.00;;;;;3.09;62.99;102465.25;5060556;28;46155;-61
2022/01/16 07:21:15;;;;;;;;;19.00;14.25;;;;;3.28;63.35;102496.59;5060694;28;45533;-61
2022/01/16 07:23:45;;;;;;;;;26.25;20.75;;;;;3.32;63.70;102485.63;5058195;28;45557;-61
2022/01/16 07:26:16;;;;;;;;;35.50;27.75;;;;;3.35;63.88;102483.22;5056205;28;45499;-61
2022/01/16 07:28:43;;;;;;;;;28.00;20.00;;;;;3.34;64.11;102502.13;5057006;28;45541;-64
2022/01/16 07:31:09;;;;;;;;;21.25;19.00;;;;;3.29;63.95;102484.53;5059882;28;45343;-63
2022/01/16 07:33:35;;;;;;;;;31.75;25.50;;;;;3.29;63.75;102456.94;5052344;28;45454;-60
2022/01/16 07:36:01;;;;;;;;;45.25;30.75;;;;;3.30;64.66;102468.19;5048372;28;45279;-63
2022/01/16 07:38:27;;;;;;;;;29.50;26.50;;;;;2.93;65.22;102443.59;5056543;28;46271;-62
2022/01/16 07:40:53;;;;;;;;;28.00;19.25;;;;;3.12;64.49;102499.06;5055870;28;45552;-63
2022/01/16 07:43:19;;;;;;;;;30.25;25.50;;;;;2.83;64.97;102467.13;5042218;28;46653;-63
2022/01/16 07:45:45;;;;;;;;;22.75;19.75;;;;;2.58;64.25;102433.69;5036943;28;46084;-60
2022/01/16 07:48:11;;;;;;;;;37.00;29.00;;;;;3.01;65.33;102516.53;5041138;28;46074;-61
2022/01/16 07:50:42;;;;;;;;;38.50;27.75;;;;;2.95;65.04;102517.06;5035386;28;45582;-61
2022/01/16 07:53:09;;;;;;;;;32.50;24.00;;;;;2.85;65.23;102501.78;5039542;28;45410;-61
2022/01/16 07:55:35;;;;;;;;;28.00;20.00;;;;;2.83;65.50;102513.72;5040810;28;45367;-59
2022/01/16 07:58:10;;;;;;;;;22.00;18.75;;;;;2.78;65.65;102494.44;5050921;28;46694;-65
2022/01/16 08:00:40;;;;;;;;;37.50;29.25;;;;;2.88;66.17;102511.41;5041828;28;45307;-61
2022/01/16 08:03:06;;;;;;;;;32.00;26.50;;;;;2.88;65.33;102498.47;5037945;28;45352;-61
2022/01/16 08:05:36;;;;;;;;;27.50;20.50;;;;;2.86;66.45;102493.19;5048276;28;45492;-60
2022/01/16 08:08:02;;;;;;;;;26.50;18.25;;;;;2.80;65.57;102498.00;5044651;28;45486;-60
2022/01/16 08:10:28;;;;;;;;;23.00;19.75;;;;;2.81;66.21;102493.72;5041720;28;45416;-60
2022/01/16 08:12:55;;;;;;;;;19.25;17.25;;;;;2.74;66.00;102484.69;5052354;28;45532;-61
2022/01/16 08:15:20;;;;;;;;;25.00;17.75;;;;;2.84;65.66;102491.31;5053983;28;45417;-61
2022/01/16 08:17:46;;;;;;;;;28.25;24.75;;;;;2.53;66.82;102442.84;5055553;28;46000;-61
2022/01/16 08:20:11;;;;;;;;;31.50;24.50;;;;;2.87;66.07;102496.66;5055582;28;45857;-60
2022/01/16 08:22:37;;;;;;;;;28.75;25.50;;;;;2.94;66.11;102515.28;5055315;28;45549;-61
2022/01/16 08:25:05;;;;;;;;;35.25;25.75;;;;;2.99;66.28;102525.91;5040742;28;45418;-60
2022/01/16 08:27:30;;;;;;;;;32.00;24.25;;;;;2.87;66.25;102504.44;5046508;28;45511;-62
2022/01/16 08:29:56;;;;;;;;;30.00;24.75;;;;;2.85;67.02;102509.53;5055972;28;45691;-61
2022/01/16 08:32:30;;;;;;;;;44.75;33.75;;;;;2.92;66.90;102526.34;5056260;28;45321;-64
2022/01/16 08:34:55;;;;;;;;;30.00;25.50;;;;;2.87;66.53;102517.38;5055210;28;45549;-63
2022/01/16 08:37:21;;;;;;;;;37.00;30.00;;;;;2.88;66.28;102521.78;5057680;28;46241;-62
2022/01/16 08:39:47;;;;;;;;;44.50;33.25;;;;;2.85;67.32;102517.31;5049313;28;46746;-64
2022/01/16 08:42:12;;;;;;;;;35.25;24.75;;;;;2.76;67.28;102508.97;5047798;28;45470;-65
2022/01/16 08:44:38;;;;;;;;;37.25;27.50;;;;;2.82;67.13;102514.50;5055394;28;45435;-63
2022/01/16 08:47:06;;;;;;;;;37.75;27.00;;;;;2.76;68.09;102519.31;5055004;28;46382;-61
2022/01/16 08:49:32;;;;;;;;;43.00;26.50;;;;;2.63;67.67;102499.53;5055419;28;45348;-62
2022/01/16 08:51:58;;;;;;;;;36.25;31.00;;;;;2.74;67.89;102519.22;5055063;28;45399;-65
2022/01/16 08:54:24;;;;;;;;;38.00;28.25;;;;;2.73;67.39;102524.31;5056080;28;46083;-61
2022/01/16 08:56:53;;;;;;;;;33.25;27.25;;;;;2.78;67.61;102528.06;5058646;28;46067;-62
2022/01/16 08:59:20;;;;;;;;;39.00;29.00;;;;;2.80;68.10;102534.25;5056449;28;45799;-61
2022/01/16 09:01:46;;;;;;;;;38.00;29.75;;;;;2.75;68.14;102531.38;5054379;28;45481;-62
2022/01/16 09:04:12;;;;;;;;;35.75;28.25;;;;;2.80;68.23;102546.25;5058220;28;45445;-63
2022/01/16 09:06:37;;;;;;;;;39.75;32.75;;;;;2.69;68.14;102532.66;5058152;28;45760;-63
2022/01/16 09:09:03;;;;;;;;;35.75;24.25;;;;;2.68;68.33;102523.09;5054980;28;45497;-62
2022/01/16 09:11:29;;;;;;;;;31.25;24.50;;;;;2.83;68.25;102556.81;5056502;28;45581;-63
2022/01/16 09:13:55;;;;;;;;;25.75;21.50;;;;;2.84;67.97;102554.31;5056353;28;45470;-64
2022/01/16 09:16:21;;;;;;;;;40.25;32.00;;;;;2.88;68.99;102558.00;5053277;28;46261;-64
2022/01/16 09:18:48;;;;;;;;;39.75;32.50;;;;;2.69;69.84;102545.59;5056778;28;45511;-63
2022/01/16 09:21:18;;;;;;;;;36.25;31.25;;;;;2.79;68.52;102573.84;5057725;28;45386;-63
2022/01/16 09:23:45;;;;;;;;;41.25;32.50;;;;;2.77;69.83;102572.84;5060100;28;45302;-63
2022/01/16 09:26:11;;;;;;;;;41.00;32.00;;;;;2.73;68.93;102570.88;5056801;28;45366;-64
2022/01/16 09:28:37;;;;;;;;;40.00;26.75;;;;;2.75;69.14;102570.19;5054231;28;45482;-63
2022/01/16 09:31:02;;;;;;;;;26.50;24.25;;;;;2.80;68.47;102567.88;5054734;28;45339;-63
2022/01/16 09:33:28;;;;;;;;;28.50;22.25;;;;;2.77;69.14;102567.66;5054982;28;45808;-62
2022/01/16 09:35:54;;;;;;;;;44.75;31.00;;;;;2.88;68.93;102579.59;5054225;28;46019;-63
2022/01/16 09:38:22;;;;;;;;;37.25;30.75;;;;;2.82;68.90;102561.09;5054361;28;45363;-61
2022/01/16 09:40:49;;;;;;;;;33.00;22.25;;;;;2.90;69.04;102570.25;5052685;28;45580;-61
2022/01/16 09:43:16;;;;;;;;;29.75;24.50;;;;;3.01;68.46;102586.44;5054272;28;45588;-61
2022/01/16 09:45:42;;;;;;;;;39.50;27.75;;;;;3.08;68.98;102591.19;5053738;28;45633;-61
2022/01/16 09:48:07;;;;;;;;;37.75;30.00;;;;;3.10;68.78;102579.22;5054048;28;45841;-61
2022/01/16 09:50:34;;;;;;;;;40.25;32.50;;;;;3.36;69.23;102590.31;5054147;28;45423;-62
2022/01/16 09:53:00;;;;;;;;;41.50;28.25;;;;;3.58;68.34;102582.13;5054614;28;45599;-61
2022/01/16 09:55:26;;;;;;;;;30.00;24.50;;;;;3.66;68.01;102560.16;5054046;28;46129;-61
2022/01/16 09:57:55;;;;;;;;;28.50;24.25;;;;;3.88;67.85;102580.47;5054433;28;45721;-62
2022/01/16 10:00:22;;;;;;;;;28.25;24.00;;;;;3.94;67.13;102595.47;5054317;28;45282;-61
2022/01/16 10:02:48;;;;;;;;;29.50;21.50;;;;;3.87;67.19;102568.31;5053952;28;45439;-63
2022/01/16 10:05:31;;;;;;;;;22.00;20.25;;;;;4.07;67.25;102589.31;5053889;28;45414;-63
2022/01/16 10:08:01;;;;;;;;;21.75;20.25;;;;;4.19;66.99;102580.53;5055734;28;45519;-61
2022/01/16 10:10:35;;;;;;;;;20.50;19.50;;;;;4.51;66.96;102581.50;5058544;28;45365;-63
2022/01/16 10:13:21;;;;;;;;;29.50;26.50;;;;;4.96;66.20;102570.94;5058224;28;45381;-62
2022/01/16 10:16:05;;;;;;;;;27.00;24.25;;;;;5.34;63.64;102569.50;5053603;28;45399;-66
2022/01/16 10:18:34;;;;;;;;;23.00;18.25;;;;;5.68;64.00;102561.78;5036307;28;45453;-62
2022/01/16 10:21:00;;;;;;;;;20.50;15.75;;;;;5.65;63.04;102535.63;5035974;28;45571;-63
2022/01/16 10:23:25;;;;;;;;;13.75;10.00;;;;;5.95;62.88;102583.09;5049364;28;45345;-64
2022/01/16 10:25:51;;;;;;;;;25.00;18.75;;;;;5.90;63.14;102576.75;5054243;28;45394;-67
2022/01/16 10:28:20;;;;;;;;;22.75;19.00;;;;;5.65;62.38;102543.44;5049464;28;45605;-62
2022/01/16 10:30:48;;;;;;;;;26.00;22.25;;;;;5.83;61.73;102583.34;5053653;28;45515;-59
2022/01/16 10:33:19;;;;;;;;;17.50;15.25;;;;;5.77;61.93;102576.97;5053631;28;45732;-61
2022/01/16 10:35:50;;;;;;;;;21.50;17.25;;;;;5.96;62.96;102584.91;5053052;28;45585;-61
2022/01/16 10:38:19;;;;;;;;;18.00;16.00;;;;;6.18;62.13;102573.84;5051250;28;45890;-62
2022/01/16 10:40:50;;;;;;;;;17.25;12.00;;;;;6.51;62.82;102576.31;5054480;28;45931;-60
2022/01/16 10:43:42;;;;;;;;;18.25;13.75;;;;;7.08;62.03;102574.66;5047286;28;45562;-61
2022/01/16 10:46:10;;;;;;;;;25.25;21.75;;;;;7.58;59.90;102585.56;5054417;28;45426;-63
2022/01/16 10:48:36;;;;;;;;;20.75;18.50;;;;;7.67;58.33;102530.31;5057690;28;45422;-62
2022/01/16 10:51:02;;;;;;;;;17.75;14.00;;;;;8.04;57.70;102578.00;5054272;28;45360;-61
2022/01/16 10:53:51;;;;;;;;;18.75;15.25;;;;;8.20;58.54;102568.19;5068232;27;45473;-63
2022/01/16 10:56:26;;;;;;;;;17.75;17.00;;;;;8.37;58.64;102546.25;5054067;28;45541;-61
2022/01/16 10:58:56;;;;;;;;;12.75;12.75;;;;;8.69;57.75;102565.84;5049215;27;45488;-60
2022/01/16 11:01:22;;;;;;;;;14.75;12.00;;;;;8.77;58.59;102544.34;5050537;28;45453;-61
2022/01/16 11:03:50;;;;;;;;;14.00;13.25;;;;;9.10;57.59;102563.03;5053369;28;46744;-62
2022/01/16 11:06:21;;;;;;;;;18.00;14.50;;;;;9.09;57.04;102556.91;5051010;28;45357;-63
2022/01/16 11:08:59;;;;;;;;;17.75;16.00;;;;;8.17;56.92;102394.06;5043236;28;45541;-61
2022/01/16 11:11:28;;;;;;;;;18.25;13.75;;;;;8.57;57.57;102475.69;5039716;28;45871;-61
2022/01/16 11:13:56;;;;;;;;;16.25;14.00;;;;;8.34;57.69;102456.47;5048432;28;46723;-61
2022/01/16 11:16:42;;;;;;;;;23.00;15.25;;;;;8.85;57.61;102566.41;5048576;28;45410;-62
2022/01/16 11:19:14;;;;;;;;;23.25;17.75;;;;;8.70;57.40;102567.63;5036962;28;45997;-60
2022/01/16 11:22:08;;;;;;;;;18.00;15.75;;;;;8.34;57.47;102550.47;5050076;28;45461;-63
2022/01/16 11:25:00;;;;;;;;;20.25;18.50;;;;;8.17;56.84;102571.56;5053741;28;46246;-60
2022/01/16 11:27:26;;;;;;;;;21.00;17.50;;;;;7.82;57.56;102567.47;5052461;28;45320;-61
2022/01/16 11:29:52;;;;;;;;;25.75;22.75;;;;;7.55;57.31;102581.09;5053455;28;45516;-61
2022/01/16 11:32:19;;;;;;;;;24.25;19.50;;;;;7.27;58.12;102562.47;5052609;28;45402;-65
2022/01/16 11:34:45;;;;;;;;;25.00;21.25;;;;;7.08;58.66;102564.22;5052625;28;47826;-64
2022/01/16 11:37:13;;;;;;;;;23.75;20.25;;;;;6.59;58.77;102517.69;5054007;28;45454;-65
2022/01/16 11:39:39;;;;;;;;;23.25;19.50;;;;;6.54;59.12;102543.50;5053933;28;45505;-65
2022/01/16 11:42:15;;;;;;;;;25.25;22.75;;;;;6.20;59.43;102517.59;5054114;28;45496;-64
2022/01/16 11:44:54;;;;;;;;;31.00;21.00;;;;;6.41;60.10;102566.25;5050283;28;45483;-65
2022/01/16 11:47:19;;;;;;;;;22.75;20.00;;;;;6.21;60.09;102554.91;5033734;28;45454;-64
2022/01/16 11:49:46;;;;;;;;;24.00;19.00;;;;;6.18;60.15;102568.66;5033023;28;45425;-65
2022/01/16 11:52:19;;;;;;;;;17.50;16.00;;;;;6.09;60.78;102583.81;5046874;28;45458;-63
2022/01/16 11:54:48;;;;;;;;;22.25;15.75;;;;;5.72;61.02;102525.63;5044660;28;46267;-63
2022/01/16 11:57:31;;;;;;;;;24.00;18.25;;;;;5.52;61.23;102509.00;5051173;28;45371;-62
2022/01/16 12:00:15;;;;;;;;;19.00;14.50;;;;;5.76;62.42;102543.97;5044627;28;45421;-63
2022/01/16 12:02:48;;;;;;;;;19.00;17.50;;;;;5.95;61.78;102583.09;5048772;28;45477;-62
2022/01/16 12:05:24;;;;;;;;;29.50;24.50;;;;;5.88;61.32;102579.25;5037942;28;45497;-66
2022/01/16 12:07:58;;;;;;;;;26.75;22.75;;;;;5.77;61.64;102572.66;5032839;28;45536;-62